createdAt,value
2022-11-21T00:00:31.170Z,98510.44
2022-11-21T00:03:00.198Z,98507.84
2022-11-21T00:05:27.889Z,98503.53
2022-11-21T00:07:55.144Z,98494.03
2022-11-21T00:10:22.745Z,98484.53
2022-11-21T00:12:56.220Z,98481.91
2022-11-21T00:15:24.187Z,98474.13
2022-11-21T00:17:51.471Z,98473.28
2022-11-21T00:20:19.726Z,98475.84
2022-11-21T00:22:47.200Z,98469.81
2022-11-21T00:25:14.537Z,98453.34
2022-11-21T00:27:41.762Z,98449.00
2022-11-21T00:30:09.987Z,98451.59
2022-11-21T00:32:37.238Z,98450.75
2022-11-21T00:35:04.697Z,98444.69
2022-11-21T00:37:32.393Z,98436.06
2022-11-21T00:39:59.515Z,98438.66
2022-11-21T00:42:26.629Z,98444.75
2022-11-21T00:44:53.993Z,98426.56
2022-11-21T00:47:21.089Z,98423.94
2022-11-21T00:49:48.207Z,98423.09
2022-11-21T00:52:16.223Z,98433.47
2022-11-21T00:54:43.320Z,98443.84
2022-11-21T00:57:11.206Z,98446.41
2022-11-21T00:59:38.598Z,98449.91
2022-11-21T01:02:05.756Z,98458.56
2022-11-21T01:04:33.356Z,98453.34
2022-11-21T01:07:00.819Z,98450.78
2022-11-21T01:09:28.774Z,98443.91
2022-11-21T01:11:56.396Z,98439.56
2022-11-21T01:14:24.049Z,98432.59
2022-11-21T01:16:51.228Z,98437.84
2022-11-21T01:19:18.380Z,98427.47
2022-11-21T01:21:45.757Z,98422.25
2022-11-21T01:24:12.884Z,98430.06
2022-11-21T01:26:40.244Z,98425.72
2022-11-21T01:29:08.842Z,98422.28
2022-11-21T01:31:36.245Z,98424.88
2022-11-21T01:34:03.376Z,98420.56
2022-11-21T01:36:32.157Z,98418.81
2022-11-21T01:39:00.255Z,98415.37
2022-11-21T01:41:31.220Z,98424.88
2022-11-21T01:43:58.889Z,98418.81
2022-11-21T01:46:26.187Z,98423.13
2022-11-21T01:49:12.091Z,98419.69
2022-11-21T01:51:48.640Z,98422.28
2022-11-21T01:54:20.791Z,98422.25
2022-11-21T01:57:11.513Z,98418.81
2022-11-21T01:59:39.988Z,98415.34
2022-11-21T02:02:08.029Z,98409.31
2022-11-21T02:04:35.521Z,98410.19
2022-11-21T02:07:03.524Z,98410.16
2022-11-21T02:09:31.000Z,98409.31
2022-11-21T02:11:58.987Z,98410.19
2022-11-21T02:14:26.486Z,98411.03
2022-11-21T02:16:54.117Z,98413.63
2022-11-21T02:19:24.773Z,98404.09
2022-11-21T02:21:56.125Z,98404.09
2022-11-21T02:24:26.662Z,98409.28
2022-11-21T02:26:53.983Z,98416.22
2022-11-21T02:29:21.092Z,98401.53
2022-11-21T02:31:48.484Z,98410.16
2022-11-21T02:34:15.672Z,98400.63
2022-11-21T02:36:46.251Z,98398.94
2022-11-21T02:39:23.974Z,98395.47
2022-11-21T02:42:04.658Z,98397.22
2022-11-21T02:44:33.947Z,98394.63
2022-11-21T02:47:01.046Z,98404.09
2022-11-21T02:49:30.795Z,98409.31
2022-11-21T02:51:58.173Z,98403.28
2022-11-21T02:54:25.545Z,98403.28
2022-11-21T02:56:52.914Z,98402.38
2022-11-21T02:59:20.279Z,98403.19
2022-11-21T03:01:47.368Z,98407.59
2022-11-21T03:04:15.159Z,98404.12
2022-11-21T03:06:42.576Z,98402.41
2022-11-21T03:09:09.704Z,98405.88
2022-11-21T03:11:36.882Z,98407.59
2022-11-21T03:14:04.269Z,98402.41
2022-11-21T03:16:31.374Z,98401.53
2022-11-21T03:18:58.632Z,98398.06
2022-11-21T03:21:25.991Z,98402.41
2022-11-21T03:23:53.143Z,98394.63
2022-11-21T03:26:20.307Z,98392.91
2022-11-21T03:28:47.675Z,98395.50
2022-11-21T03:31:14.812Z,98396.34
2022-11-21T03:33:41.916Z,98384.25
2022-11-21T03:36:09.386Z,98379.09
2022-11-21T03:38:36.483Z,98377.34
2022-11-21T03:41:04.730Z,98376.50
2022-11-21T03:43:32.108Z,98377.31
2022-11-21T03:45:59.229Z,98378.22
2022-11-21T03:48:26.342Z,98368.69
2022-11-21T03:50:53.791Z,98373.03
2022-11-21T03:53:20.913Z,98372.09
2022-11-21T03:55:48.155Z,98368.41
2022-11-21T03:58:15.662Z,98371.34
2022-11-21T04:00:42.765Z,98372.56
2022-11-21T04:03:10.145Z,98373.06
2022-11-21T04:05:37.257Z,98375.69
2022-11-21T04:08:04.436Z,98372.31
2022-11-21T04:10:32.334Z,98363.25
2022-11-21T04:12:59.606Z,98360.78
2022-11-21T04:15:29.009Z,98354.81
2022-11-21T04:17:56.358Z,98354.78
2022-11-21T04:20:23.492Z,98344.41
2022-11-21T04:22:50.595Z,98349.56
2022-11-21T04:25:17.958Z,98347.84
2022-11-21T04:27:45.045Z,98345.31
2022-11-21T04:30:12.152Z,98334.97
2022-11-21T04:32:39.519Z,98339.25
2022-11-21T04:35:06.921Z,98341.00
2022-11-21T04:37:34.069Z,98332.37
2022-11-21T04:40:01.461Z,98323.75
2022-11-21T04:42:28.627Z,98317.66
2022-11-21T04:44:55.750Z,98317.72
2022-11-21T04:47:23.113Z,98312.56
2022-11-21T04:49:50.222Z,98315.09
2022-11-21T04:52:17.323Z,98311.66
2022-11-21T04:54:44.709Z,98308.25
2022-11-21T04:57:11.809Z,98297.88
2022-11-21T04:59:38.934Z,98316.03
2022-11-21T05:02:06.337Z,98315.13
2022-11-21T05:04:33.437Z,98309.97
2022-11-21T05:07:00.562Z,98322.03
2022-11-21T05:09:27.958Z,98325.50
2022-11-21T05:12:13.900Z,98328.97
2022-11-21T05:14:41.338Z,98323.78
2022-11-21T05:17:08.444Z,98319.47
2022-11-21T05:19:35.570Z,98315.13
2022-11-21T05:22:02.975Z,98310.81
2022-11-21T05:24:30.314Z,98311.69
2022-11-21T05:26:57.693Z,98309.94
2022-11-21T05:29:28.065Z,98307.38
2022-11-21T05:31:55.525Z,98311.69
2022-11-21T05:34:23.136Z,98310.81
2022-11-21T05:36:57.326Z,98320.34
2022-11-21T05:39:24.713Z,98307.34
2022-11-21T05:41:52.720Z,98307.34
2022-11-21T05:44:19.837Z,98303.03
2022-11-21T05:46:46.969Z,98289.16
2022-11-21T05:49:14.346Z,98285.75
2022-11-21T05:51:42.456Z,98291.81
2022-11-21T05:54:14.814Z,98308.22
2022-11-21T05:56:42.352Z,98308.22
2022-11-21T05:59:10.396Z,98322.88
2022-11-21T06:01:56.340Z,98334.97
2022-11-21T06:04:23.724Z,98328.00
2022-11-21T06:06:50.870Z,98330.69
2022-11-21T06:09:17.958Z,98320.31
2022-11-21T06:11:45.672Z,98316.84
2022-11-21T06:14:12.784Z,98313.41
2022-11-21T06:16:39.887Z,98305.62
2022-11-21T06:19:07.295Z,98310.81
2022-11-21T06:21:37.298Z,98310.81
2022-11-21T06:24:05.596Z,98306.50
2022-11-21T06:26:32.964Z,98309.06
2022-11-21T06:29:00.071Z,98310.81
2022-11-21T06:31:27.330Z,98311.69
2022-11-21T06:33:55.585Z,98328.91
2022-11-21T06:36:22.751Z,98330.66
2022-11-21T06:38:49.873Z,98339.19
2022-11-21T06:41:18.076Z,98335.75
2022-11-21T06:43:45.256Z,98335.81
2022-11-21T06:46:12.605Z,98342.75
2022-11-21T06:48:40.134Z,98345.38
2022-11-21T06:51:08.377Z,98345.38
2022-11-21T06:53:35.957Z,98354.78
2022-11-21T06:56:03.780Z,98358.19
2022-11-21T06:58:31.097Z,98351.16
2022-11-21T07:00:58.363Z,98363.37
2022-11-21T07:03:26.833Z,98364.84
2022-11-21T07:05:58.478Z,98370.72
2022-11-21T07:08:25.833Z,98359.81
2022-11-21T07:11:22.944Z,98363.09
2022-11-21T07:13:40.308Z,98373.16
2022-11-21T07:16:08.072Z,98377.25
2022-11-21T07:18:35.477Z,98370.78
2022-11-21T07:21:04.651Z,98374.22
2022-11-21T07:23:32.006Z,98372.91
2022-11-21T07:26:03.048Z,98376.13
2022-11-21T07:28:30.621Z,98387.84
2022-11-21T07:30:58.005Z,98382.06
2022-11-21T07:33:25.121Z,98379.91
2022-11-21T07:35:52.514Z,98373.88
2022-11-21T07:38:19.910Z,98373.91
2022-11-21T07:40:47.024Z,98367.88
2022-11-21T07:43:14.531Z,98376.06
2022-11-21T07:45:41.633Z,98367.28
2022-11-21T07:48:09.679Z,98365.88
2022-11-21T07:50:37.071Z,98369.72
2022-11-21T07:53:05.092Z,98361.34
2022-11-21T07:55:35.223Z,98368.53
2022-11-21T07:58:07.589Z,98375.47
2022-11-21T08:00:35.397Z,98368.38
2022-11-21T08:03:04.018Z,98381.31
2022-11-21T08:05:31.499Z,98382.19
2022-11-21T08:07:58.628Z,98383.28
2022-11-21T08:10:26.016Z,98394.22
2022-11-21T08:12:53.113Z,98393.56
2022-11-21T08:15:20.236Z,98403.69
2022-11-21T08:17:49.102Z,98410.75
2022-11-21T08:20:17.163Z,98411.50
2022-11-21T08:22:44.299Z,98415.22
2022-11-21T08:25:11.831Z,98400.47
2022-11-21T08:27:39.144Z,98413.03
2022-11-21T08:30:11.052Z,98414.13
2022-11-21T08:32:38.496Z,98421.00
2022-11-21T08:35:05.819Z,98416.56
2022-11-21T08:37:32.916Z,98419.34
2022-11-21T08:40:00.816Z,98419.34
2022-11-21T08:42:27.945Z,98423.87
2022-11-21T08:44:55.046Z,98419.38
2022-11-21T08:47:22.734Z,98422.69
2022-11-21T08:49:50.149Z,98417.75
2022-11-21T08:52:17.504Z,98421.91
2022-11-21T08:54:45.022Z,98422.09
2022-11-21T08:57:12.227Z,98427.62
2022-11-21T08:59:39.368Z,98424.25
2022-11-21T09:02:06.815Z,98416.47
2022-11-21T09:04:33.997Z,98418.16
2022-11-21T09:07:02.067Z,98424.81
2022-11-21T09:09:29.560Z,98420.78
2022-11-21T09:11:56.740Z,98412.25
2022-11-21T09:14:43.256Z,98419.12
2022-11-21T09:17:32.374Z,98416.72
2022-11-21T09:19:59.502Z,98409.94
2022-11-21T09:22:26.912Z,98405.53
2022-11-21T09:24:54.138Z,98414.69
2022-11-21T09:27:21.311Z,98414.47
2022-11-21T09:29:53.942Z,98412.97
2022-11-21T09:32:21.533Z,98419.66
2022-11-21T09:34:48.987Z,98417.13
2022-11-21T09:37:16.084Z,98416.59
2022-11-21T09:39:43.214Z,98416.09
2022-11-21T09:42:18.640Z,98420.50
2022-11-21T09:44:56.047Z,98422.56
2022-11-21T09:47:26.538Z,98426.78
2022-11-21T09:49:57.092Z,98422.94
2022-11-21T09:52:25.956Z,98426.31
2022-11-21T09:54:54.522Z,98416.59
2022-11-21T09:57:21.845Z,98412.22
2022-11-21T09:59:49.234Z,98412.09
2022-11-21T10:02:17.293Z,98396.72
2022-11-21T10:04:45.257Z,98401.44
2022-11-21T10:07:23.132Z,98413.81
2022-11-21T10:10:02.535Z,98405.16
2022-11-21T10:12:38.767Z,98413.81
2022-11-21T10:15:25.266Z,98403.09
2022-11-21T10:18:17.287Z,98404.69
2022-11-21T10:20:44.599Z,98387.31
2022-11-21T10:23:16.304Z,98394.13
2022-11-21T10:25:45.767Z,98397.34
2022-11-21T10:28:21.898Z,98391.34
2022-11-21T10:30:49.123Z,98379.66
2022-11-21T10:33:27.225Z,98374.22
2022-11-21T10:35:55.617Z,98373.75
2022-11-21T10:38:23.855Z,98372.00
2022-11-21T10:41:04.300Z,98364.31
2022-11-21T10:43:54.930Z,98363.19
2022-11-21T10:46:22.189Z,98361.41
2022-11-21T10:48:56.300Z,98361.59
2022-11-21T10:51:27.773Z,98353.16
2022-11-21T10:54:23.540Z,98354.72
2022-11-21T10:56:50.860Z,98354.81
2022-11-21T10:59:30.779Z,98355.75
2022-11-21T11:02:22.144Z,98343.59
2022-11-21T11:04:52.416Z,98354.84
2022-11-21T11:07:21.409Z,98356.41
2022-11-21T11:09:48.611Z,98353.69
2022-11-21T11:12:23.018Z,98351.16
2022-11-21T11:14:54.376Z,98352.94
2022-11-21T11:17:31.636Z,98352.03
2022-11-21T11:20:24.669Z,98340.63
2022-11-21T11:22:52.302Z,98349.19
2022-11-21T11:25:19.411Z,98345.94
2022-11-21T11:27:46.509Z,98339.63
2022-11-21T11:30:18.931Z,98344.66
2022-11-21T11:32:46.042Z,98330.06
2022-11-21T11:35:13.340Z,98331.50
2022-11-21T11:37:43.835Z,98335.75
2022-11-21T11:40:19.425Z,98332.50
2022-11-21T11:43:11.756Z,98323.59
2022-11-21T11:46:32.982Z,98328.75
2022-11-21T11:49:19.675Z,98309.22
2022-11-21T11:51:54.621Z,98311.00
2022-11-21T11:54:22.895Z,98309.25
2022-11-21T11:56:50.092Z,98305.97
2022-11-21T11:59:28.720Z,98303.03
2022-11-21T12:01:59.227Z,98297.81
2022-11-21T12:04:29.604Z,98296.50
2022-11-21T12:09:50.402Z,98289.81
2022-11-21T12:12:26.800Z,98283.84
2022-11-21T12:15:12.671Z,98286.78
2022-11-21T12:18:06.220Z,98282.88
2022-11-21T12:20:37.234Z,98281.22
2022-11-21T12:23:04.367Z,98280.78
2022-11-21T12:25:37.088Z,98279.66
2022-11-21T12:28:05.398Z,98279.56
2022-11-21T12:30:35.483Z,98281.41
2022-11-21T12:33:08.852Z,98277.50
2022-11-21T12:35:49.450Z,98283.19
2022-11-21T12:38:22.565Z,98279.19
2022-11-21T12:40:52.968Z,98273.13
2022-11-21T12:43:35.157Z,98277.47
2022-11-21T12:46:04.479Z,98262.22
2022-11-21T12:48:59.160Z,98263.00
2022-11-21T12:51:57.933Z,98257.97
2022-11-21T12:54:31.226Z,98262.81
2022-11-21T12:57:11.790Z,98267.47
2022-11-21T12:59:59.170Z,98270.28
2022-11-21T13:02:32.460Z,98267.91
2022-11-21T13:04:59.676Z,98277.53
2022-11-21T13:07:29.625Z,98273.94
2022-11-21T13:09:57.285Z,98279.06
2022-11-21T13:12:30.668Z,98283.31
2022-11-21T13:15:14.071Z,98285.28
2022-11-21T13:17:50.550Z,98275.97
2022-11-21T13:20:20.906Z,98281.78
2022-11-21T13:22:48.800Z,98274.22
2022-11-21T13:25:39.231Z,98282.09
2022-11-21T13:28:18.881Z,98271.56
2022-11-21T13:30:47.011Z,98274.12
2022-11-21T13:33:33.033Z,98269.84
2022-11-21T13:36:00.762Z,98281.06
2022-11-21T13:38:28.141Z,98277.56
2022-11-21T13:41:13.826Z,98277.63
2022-11-21T13:43:41.205Z,98285.31
2022-11-21T13:46:08.448Z,98281.09
2022-11-21T13:48:38.834Z,98288.03
2022-11-21T13:51:24.470Z,98288.84
2022-11-21T13:54:00.404Z,98292.34
2022-11-21T13:56:47.146Z,98287.28
2022-11-21T13:59:30.378Z,98286.16
2022-11-21T14:02:10.098Z,98285.16
2022-11-21T14:04:37.397Z,98281.28
2022-11-21T14:07:33.809Z,98276.47
2022-11-21T14:10:04.610Z,98282.62
2022-11-21T14:12:41.012Z,98285.00
2022-11-21T14:15:15.241Z,98287.88
2022-11-21T14:17:53.542Z,98287.38
2022-11-21T14:20:28.243Z,98285.13
2022-11-21T14:22:57.213Z,98287.84
2022-11-21T14:25:27.590Z,98285.19
2022-11-21T14:27:55.074Z,98284.88
2022-11-21T14:30:29.172Z,98274.12
2022-11-21T14:32:56.714Z,98287.78
2022-11-21T14:35:23.917Z,98285.16
2022-11-21T14:37:51.192Z,98293.75
2022-11-21T14:40:24.703Z,98293.69
2022-11-21T14:42:51.797Z,98287.47
2022-11-21T14:45:20.381Z,98302.94
2022-11-21T14:47:50.590Z,98291.28
2022-11-21T14:50:25.353Z,98293.09
2022-11-21T14:52:57.324Z,98296.19
2022-11-21T14:55:31.888Z,98291.59
2022-11-21T14:58:00.277Z,98289.31
2022-11-21T15:00:59.266Z,98283.66
2022-11-21T15:03:20.866Z,98298.12
2022-11-21T15:06:01.977Z,98301.41
2022-11-21T15:09:06.044Z,98302.63
2022-11-21T15:11:20.717Z,98302.78
2022-11-21T15:14:14.480Z,98304.62
2022-11-21T15:16:36.230Z,98301.13
2022-11-21T15:19:08.686Z,98305.78
2022-11-21T15:21:35.942Z,98299.88
2022-11-21T15:24:18.723Z,98307.78
2022-11-21T15:26:47.286Z,98316.19
2022-11-21T15:29:21.313Z,98322.72
2022-11-21T15:32:14.000Z,98326.03
2022-11-21T15:34:43.876Z,98321.72
2022-11-21T15:37:13.138Z,98334.81
2022-11-21T15:39:48.469Z,98341.66
2022-11-21T15:42:28.146Z,98342.28
2022-11-21T15:45:01.073Z,98336.19
2022-11-21T15:47:28.726Z,98331.94
2022-11-21T15:49:55.850Z,98334.03
2022-11-21T15:52:22.954Z,98346.78
2022-11-21T15:54:50.535Z,98345.78
2022-11-21T15:59:51.123Z,98336.00
2022-11-21T16:02:18.263Z,98327.78
2022-11-21T16:04:45.646Z,98323.28
2022-11-21T16:07:12.815Z,98318.03
2022-11-21T16:09:42.386Z,98318.44
2022-11-21T16:12:09.782Z,98312.72
2022-11-21T16:14:36.923Z,98310.16
2022-11-21T16:17:04.265Z,98293.59
2022-11-21T16:19:32.119Z,98280.47
2022-11-21T16:21:59.406Z,98282.97
2022-11-21T16:24:26.522Z,98286.28
2022-11-21T16:26:55.423Z,98297.94
2022-11-21T16:29:22.694Z,98306.81
2022-11-21T16:31:49.943Z,98305.59
2022-11-21T16:34:19.010Z,98292.75
2022-11-21T16:36:46.292Z,98292.75
2022-11-21T16:39:18.209Z,98292.22
2022-11-21T16:41:48.186Z,98290.56
2022-11-21T16:44:15.944Z,98293.03
2022-11-21T16:46:44.265Z,98292.75
2022-11-21T16:49:12.185Z,98296.69
2022-11-21T16:51:39.528Z,98294.16
2022-11-21T16:54:09.153Z,98293.03
2022-11-21T16:56:37.339Z,98302.31
2022-11-21T16:59:04.699Z,98303.34
2022-11-21T17:01:32.238Z,98307.78
2022-11-21T17:04:00.026Z,98311.44
2022-11-21T17:06:29.655Z,98314.94
2022-11-21T17:08:58.894Z,98313.69
2022-11-21T17:11:29.443Z,98311.84
2022-11-21T17:14:04.305Z,98315.34
2022-11-21T17:16:32.571Z,98315.28
2022-11-21T17:19:00.574Z,98312.66
2022-11-21T17:21:28.089Z,98311.25
2022-11-21T17:23:56.012Z,98305.00
2022-11-21T17:26:24.555Z,98321.06
2022-11-21T17:28:56.746Z,98305.31
2022-11-21T17:31:24.857Z,98309.50
2022-11-21T17:33:52.861Z,98310.25
2022-11-21T17:36:21.349Z,98309.47
2022-11-21T17:38:50.843Z,98309.37
2022-11-21T17:41:19.049Z,98324.06
2022-11-21T17:43:47.238Z,98325.13
2022-11-21T17:46:17.204Z,98327.50
2022-11-21T17:48:47.463Z,98329.13
2022-11-21T17:51:20.045Z,98330.09
2022-11-21T17:53:47.957Z,98325.94
2022-11-21T17:56:19.376Z,98323.50
2022-11-21T17:58:47.191Z,98324.22
2022-11-21T18:01:19.653Z,98328.75
2022-11-21T18:03:55.637Z,98326.91
2022-11-21T18:06:22.940Z,98324.19
2022-11-21T18:08:50.685Z,98323.34
2022-11-21T18:11:19.472Z,98321.50
2022-11-21T18:13:48.137Z,98333.09
2022-11-21T18:16:20.181Z,98320.72
2022-11-21T18:18:47.793Z,98324.19
2022-11-21T18:21:16.693Z,98328.72
2022-11-21T18:23:44.453Z,98326.00
2022-11-21T18:26:12.766Z,98330.28
2022-11-21T18:28:40.055Z,98320.56
2022-11-21T18:31:07.894Z,98325.69
2022-11-21T18:33:36.165Z,98322.94
2022-11-21T18:36:04.560Z,98319.38
2022-11-21T18:38:54.890Z,98317.81
2022-11-21T18:41:23.731Z,98317.88
2022-11-21T18:43:52.376Z,98318.72
2022-11-21T18:46:20.404Z,98326.28
2022-11-21T18:49:02.047Z,98314.31
2022-11-21T18:51:31.949Z,98315.09
2022-11-21T18:54:05.569Z,98320.94
2022-11-21T18:56:36.884Z,98309.81
2022-11-21T18:59:05.905Z,98306.53
2022-11-21T19:01:33.880Z,98308.28
2022-11-21T19:04:02.825Z,98307.38
2022-11-21T19:06:30.599Z,98293.72
2022-11-21T19:08:58.596Z,98301.44
2022-11-21T19:11:28.885Z,98305.34
2022-11-21T19:13:57.653Z,98303.56
2022-11-21T19:16:25.966Z,98298.91
2022-11-21T19:19:33.748Z,98307.53
2022-11-21T19:21:45.964Z,98309.19
2022-11-21T19:24:15.176Z,98320.09
2022-11-21T19:26:43.128Z,98311.50
2022-11-21T19:29:13.074Z,98298.12
2022-11-21T19:31:45.720Z,98309.19
2022-11-21T19:34:14.191Z,98300.75
2022-11-21T19:36:43.382Z,98310.19
2022-11-21T19:39:11.581Z,98310.13
2022-11-21T19:41:39.641Z,98309.28
2022-11-21T19:44:07.537Z,98310.84
2022-11-21T19:46:37.474Z,98312.62
2022-11-21T19:49:05.713Z,98301.41
2022-11-21T19:51:37.802Z,98307.41
2022-11-21T19:54:07.193Z,98309.66
2022-11-21T19:56:35.536Z,98319.06
2022-11-21T19:59:03.479Z,98310.47
2022-11-21T20:01:31.795Z,98310.22
2022-11-21T20:04:02.269Z,98305.88
2022-11-21T20:06:36.134Z,98315.63
2022-11-21T20:09:06.191Z,98315.78
2022-11-21T20:11:35.581Z,98320.09
2022-11-21T20:14:03.319Z,98319.03
2022-11-21T20:16:38.085Z,98313.81
2022-11-21T20:19:10.287Z,98326.81
2022-11-21T20:21:38.719Z,98332.91
2022-11-21T20:24:06.817Z,98327.75
2022-11-21T20:26:35.923Z,98336.59
2022-11-21T20:29:04.209Z,98326.94
2022-11-21T20:31:33.162Z,98325.50
2022-11-21T20:34:05.457Z,98317.81
2022-11-21T20:36:34.825Z,98316.84
2022-11-21T20:39:03.777Z,98309.37
2022-11-21T20:41:32.772Z,98323.91
2022-11-21T20:46:49.436Z,98318.09
2022-11-21T20:49:17.804Z,98316.41
2022-11-21T20:54:37.649Z,98304.91
2022-11-21T20:57:09.216Z,98302.25
2022-11-21T20:59:42.230Z,98302.31
2022-11-21T21:02:12.813Z,98304.91
2022-11-21T21:04:40.696Z,98304.72
2022-11-21T21:07:08.836Z,98297.81
2022-11-21T21:09:36.464Z,98292.06
2022-11-21T21:12:05.076Z,98284.50
2022-11-21T21:14:32.214Z,98279.22
2022-11-21T21:16:59.377Z,98280.09
2022-11-21T21:19:26.918Z,98279.03
2022-11-21T21:21:54.378Z,98271.06
2022-11-21T21:24:22.133Z,98267.69
2022-11-21T21:26:49.952Z,98267.62
2022-11-21T21:29:20.623Z,98264.09
2022-11-21T21:31:51.633Z,98255.50
2022-11-21T21:34:20.191Z,98260.56
2022-11-21T21:36:47.366Z,98264.19
2022-11-21T21:39:14.531Z,98272.69
2022-11-21T21:41:45.958Z,98259.62
2022-11-21T21:44:14.023Z,98263.13
2022-11-21T21:46:41.528Z,98260.44
2022-11-21T21:49:08.633Z,98257.56
2022-11-21T21:51:37.398Z,98256.84
2022-11-21T21:54:05.005Z,98256.09
2022-11-21T21:56:32.436Z,98256.00
2022-11-21T21:58:59.701Z,98256.91
2022-11-21T22:01:28.025Z,98256.66
2022-11-21T22:03:56.108Z,98267.97
2022-11-21T22:06:23.219Z,98270.25
2022-11-21T22:08:50.439Z,98270.94
2022-11-21T22:11:18.942Z,98269.19
2022-11-21T22:13:47.372Z,98262.84
2022-11-21T22:16:14.674Z,98276.00
2022-11-21T22:18:42.744Z,98267.72
2022-11-21T22:21:17.126Z,98274.72
2022-11-21T22:24:02.936Z,98274.56
2022-11-21T22:26:31.734Z,98282.34
2022-11-21T22:28:59.110Z,98297.44
2022-11-21T22:31:26.240Z,98285.75
2022-11-21T22:33:53.537Z,98281.44
2022-11-21T22:36:23.030Z,98284.03
2022-11-21T22:38:52.520Z,98291.78
2022-11-21T22:41:20.447Z,98292.59
2022-11-21T22:43:51.536Z,98287.50
2022-11-21T22:46:19.196Z,98281.44
2022-11-21T22:48:46.575Z,98277.13
2022-11-21T22:51:17.738Z,98273.66
2022-11-21T22:53:48.004Z,98268.31
2022-11-21T22:56:15.831Z,98267.44
2022-11-21T22:58:42.966Z,98277.13
2022-11-21T23:01:11.140Z,98271.78
2022-11-21T23:03:38.736Z,98270.94
2022-11-21T23:06:06.788Z,98268.50
2022-11-21T23:08:34.469Z,98267.50
2022-11-21T23:11:02.963Z,98265.06
2022-11-21T23:13:30.098Z,98257.16
2022-11-21T23:15:57.303Z,98253.84
2022-11-21T23:18:24.665Z,98247.78
2022-11-21T23:20:52.380Z,98236.53
2022-11-21T23:23:19.638Z,98236.56
2022-11-21T23:25:48.024Z,98252.06
2022-11-21T23:28:15.133Z,98245.22
2022-11-21T23:30:44.414Z,98244.34
2022-11-21T23:33:11.909Z,98242.59
2022-11-21T23:35:39.153Z,98224.41
2022-11-21T23:38:06.421Z,98227.88
2022-11-21T23:40:33.867Z,98224.47
2022-11-21T23:43:00.974Z,98224.38
2022-11-21T23:45:28.112Z,98218.41
2022-11-21T23:47:55.748Z,98219.19
2022-11-21T23:50:22.857Z,98217.47
2022-11-21T23:52:50.139Z,98223.59
2022-11-21T23:55:17.628Z,98209.78
2022-11-21T23:57:48.343Z,98210.63
